createdAt,value
2019-01-16T00:00:44.999Z,948.40
2019-01-16T00:01:44.988Z,948.40
2019-01-16T00:02:44.970Z,948.41
2019-01-16T00:03:44.961Z,948.34
2019-01-16T00:04:44.967Z,948.41
2019-01-16T00:05:44.935Z,948.33
2019-01-16T00:06:44.925Z,948.32
2019-01-16T00:07:44.907Z,948.34
2019-01-16T00:08:44.895Z,948.33
2019-01-16T00:09:44.875Z,948.34
2019-01-16T00:10:44.866Z,948.33
2019-01-16T00:11:44.864Z,948.37
2019-01-16T00:12:44.838Z,948.38
2019-01-16T00:13:44.832Z,948.39
2019-01-16T00:14:44.815Z,948.40
2019-01-16T00:15:44.804Z,948.40
2019-01-16T00:16:44.794Z,948.42
2019-01-16T00:17:44.797Z,948.39
2019-01-16T00:18:44.764Z,948.43
2019-01-16T00:19:44.752Z,948.46
2019-01-16T00:20:44.739Z,948.42
2019-01-16T00:21:44.726Z,948.45
2019-01-16T00:22:44.713Z,948.44
2019-01-16T00:23:44.699Z,948.45
2019-01-16T00:24:44.698Z,948.44
2019-01-16T00:25:44.673Z,948.43
2019-01-16T00:26:44.662Z,948.38
2019-01-16T00:27:44.652Z,948.38
2019-01-16T00:28:44.635Z,948.37
2019-01-16T00:29:44.625Z,948.37
2019-01-16T00:30:44.626Z,948.28
2019-01-16T00:31:44.598Z,948.27
2019-01-16T00:32:44.582Z,948.25
2019-01-16T00:33:44.570Z,948.29
2019-01-16T00:34:44.552Z,948.23
2019-01-16T00:35:44.545Z,948.23
2019-01-16T00:36:44.528Z,948.17
2019-01-16T00:37:44.521Z,948.21
2019-01-16T00:38:44.503Z,948.26
2019-01-16T00:39:44.492Z,948.22
2019-01-16T00:40:44.474Z,948.25
2019-01-16T00:41:44.465Z,948.28
2019-01-16T00:42:44.450Z,948.23
2019-01-16T00:43:44.439Z,948.22
2019-01-16T00:44:44.427Z,948.19
2019-01-16T00:45:44.413Z,948.14
2019-01-16T00:46:44.397Z,948.15
2019-01-16T00:47:44.386Z,948.14
2019-01-16T00:48:44.373Z,948.10
2019-01-16T00:49:44.359Z,948.11
2019-01-16T00:50:44.348Z,948.04
2019-01-16T00:51:44.334Z,948.06
2019-01-16T00:52:44.329Z,948.06
2019-01-16T00:53:44.304Z,948.05
2019-01-16T00:54:44.292Z,948.04
2019-01-16T00:55:44.281Z,948.01
2019-01-16T00:56:44.272Z,948.01
2019-01-16T00:57:44.254Z,948.01
2019-01-16T00:58:44.245Z,947.99
2019-01-16T00:59:44.226Z,947.99
2019-01-16T01:00:44.216Z,947.99
2019-01-16T01:01:44.202Z,947.96
2019-01-16T01:02:44.188Z,947.97
2019-01-16T01:03:44.176Z,948.00
2019-01-16T01:04:44.167Z,948.03
2019-01-16T01:05:44.150Z,948.02
2019-01-16T01:06:44.132Z,948.00
2019-01-16T01:07:44.125Z,948.04
2019-01-16T01:08:44.110Z,948.00
2019-01-16T01:09:44.098Z,948.03
2019-01-16T01:10:44.085Z,948.06
2019-01-16T01:11:44.074Z,948.05
2019-01-16T01:12:44.061Z,948.07
2019-01-16T01:13:44.045Z,948.07
2019-01-16T01:14:44.030Z,948.00
2019-01-16T01:15:44.018Z,948.06
2019-01-16T01:16:44.007Z,948.07
2019-01-16T01:17:43.993Z,947.99
2019-01-16T01:18:43.979Z,947.98
2019-01-16T01:19:43.971Z,948.00
2019-01-16T01:20:43.954Z,947.97
2019-01-16T01:21:43.939Z,948.01
2019-01-16T01:22:43.926Z,947.99
2019-01-16T01:23:43.932Z,947.98
2019-01-16T01:24:43.901Z,948.03
2019-01-16T01:25:43.877Z,948.00
2019-01-16T01:26:43.870Z,948.02
2019-01-16T01:27:43.860Z,948.05
2019-01-16T01:28:43.847Z,948.04
2019-01-16T01:29:43.837Z,948.04
2019-01-16T01:30:43.821Z,948.02
2019-01-16T01:31:43.806Z,947.99
2019-01-16T01:32:43.792Z,947.97
2019-01-16T01:33:43.779Z,947.97
2019-01-16T01:34:43.767Z,947.96
2019-01-16T01:35:43.754Z,947.92
2019-01-16T01:36:43.744Z,947.95
2019-01-16T01:37:43.728Z,947.98
2019-01-16T01:38:43.715Z,947.97
2019-01-16T01:39:43.701Z,947.93
2019-01-16T01:40:43.687Z,947.98
2019-01-16T01:41:43.676Z,947.97
2019-01-16T01:42:43.659Z,947.91
2019-01-16T01:43:43.667Z,947.94
2019-01-16T01:44:43.637Z,947.92
2019-01-16T01:45:43.621Z,947.93
2019-01-16T01:46:43.607Z,947.90
2019-01-16T01:47:43.587Z,947.94
2019-01-16T01:48:43.576Z,947.92
2019-01-16T01:49:43.569Z,947.92
2019-01-16T01:50:43.557Z,947.91
2019-01-16T01:51:43.541Z,947.91
2019-01-16T01:52:43.526Z,947.90
2019-01-16T01:53:43.514Z,947.94
2019-01-16T01:54:43.502Z,947.93
2019-01-16T01:55:43.500Z,947.86
2019-01-16T01:56:43.471Z,947.86
2019-01-16T01:57:43.462Z,947.85
2019-01-16T01:58:43.445Z,947.81
2019-01-16T01:59:43.433Z,947.82
2019-01-16T02:00:43.422Z,947.83
2019-01-16T02:01:43.425Z,947.81
2019-01-16T02:02:43.397Z,947.80
2019-01-16T02:03:43.381Z,947.80
2019-01-16T02:04:43.367Z,947.81
2019-01-16T02:05:43.356Z,947.75
2019-01-16T02:06:43.347Z,947.79
2019-01-16T02:07:43.327Z,947.73
2019-01-16T02:08:43.314Z,947.66
2019-01-16T02:09:43.301Z,947.66
2019-01-16T02:10:43.288Z,947.67
2019-01-16T02:11:43.273Z,947.64
2019-01-16T02:12:43.262Z,947.57
2019-01-16T02:13:43.248Z,947.58
2019-01-16T02:14:43.235Z,947.53
2019-01-16T02:15:43.221Z,947.57
2019-01-16T02:16:43.207Z,947.55
2019-01-16T02:17:43.196Z,947.56
2019-01-16T02:18:47.305Z,947.57
2019-01-16T02:19:43.167Z,947.53
2019-01-16T02:20:43.153Z,947.52
2019-01-16T02:21:43.140Z,947.53
2019-01-16T02:22:43.128Z,947.50
2019-01-16T02:23:43.115Z,947.44
2019-01-16T02:24:43.104Z,947.49
2019-01-16T02:25:43.088Z,947.50
2019-01-16T02:26:43.072Z,947.49
2019-01-16T02:27:43.055Z,947.44
2019-01-16T02:28:43.045Z,947.43
2019-01-16T02:29:43.034Z,947.45
2019-01-16T02:30:43.027Z,947.47
2019-01-16T02:31:43.004Z,947.46
2019-01-16T02:32:42.991Z,947.39
2019-01-16T02:33:42.977Z,947.43
2019-01-16T02:34:42.964Z,947.41
2019-01-16T02:35:42.953Z,947.35
2019-01-16T02:36:42.938Z,947.35
2019-01-16T02:37:42.938Z,947.38
2019-01-16T02:38:42.910Z,947.31
2019-01-16T02:39:42.897Z,947.32
2019-01-16T02:40:42.885Z,947.30
2019-01-16T02:41:42.870Z,947.27
2019-01-16T02:42:42.853Z,947.25
2019-01-16T02:43:42.843Z,947.25
2019-01-16T02:44:42.818Z,947.23
2019-01-16T02:45:42.817Z,947.29
2019-01-16T02:46:42.803Z,947.24
2019-01-16T02:47:42.787Z,947.27
2019-01-16T02:48:42.773Z,947.27
2019-01-16T02:49:42.763Z,947.30
2019-01-16T02:50:42.747Z,947.30
2019-01-16T02:51:42.768Z,947.28
2019-01-16T02:52:42.847Z,947.27
2019-01-16T02:53:42.708Z,947.20
2019-01-16T02:54:42.696Z,947.19
2019-01-16T02:55:42.684Z,947.22
2019-01-16T02:56:42.664Z,947.21
2019-01-16T02:57:42.659Z,947.24
2019-01-16T02:58:42.637Z,947.19
2019-01-16T02:59:42.621Z,947.21
2019-01-16T03:00:42.609Z,947.20
2019-01-16T03:01:42.593Z,947.22
2019-01-16T03:02:42.583Z,947.19
2019-01-16T03:03:42.569Z,947.16
2019-01-16T03:04:42.554Z,947.17
2019-01-16T03:05:42.540Z,947.16
2019-01-16T03:06:42.528Z,947.19
2019-01-16T03:07:42.520Z,947.11
2019-01-16T03:08:42.501Z,947.16
2019-01-16T03:09:42.502Z,947.11
2019-01-16T03:10:42.471Z,947.15
2019-01-16T03:11:42.460Z,947.09
2019-01-16T03:12:42.443Z,947.09
2019-01-16T03:13:42.433Z,947.09
2019-01-16T03:14:42.415Z,947.09
2019-01-16T03:15:42.403Z,947.09
2019-01-16T03:16:42.403Z,947.07
2019-01-16T03:17:42.378Z,947.04
2019-01-16T03:18:42.360Z,947.02
2019-01-16T03:19:42.345Z,946.98
2019-01-16T03:20:42.337Z,947.02
2019-01-16T03:21:42.326Z,946.98
2019-01-16T03:22:42.305Z,946.98
2019-01-16T03:23:42.293Z,946.98
2019-01-16T03:24:42.276Z,946.93
2019-01-16T03:25:42.265Z,946.95
2019-01-16T03:26:42.250Z,946.92
2019-01-16T03:27:42.236Z,946.93
2019-01-16T03:28:42.223Z,946.87
2019-01-16T03:29:42.209Z,946.91
2019-01-16T03:30:42.193Z,946.85
2019-01-16T03:31:42.182Z,946.87
2019-01-16T03:32:42.170Z,946.87
2019-01-16T03:33:42.154Z,946.86
2019-01-16T03:34:42.139Z,946.78
2019-01-16T03:35:42.122Z,946.82
2019-01-16T03:36:42.111Z,946.78
2019-01-16T03:37:42.090Z,946.71
2019-01-16T03:38:42.083Z,946.68
2019-01-16T03:39:42.072Z,946.70
2019-01-16T03:40:42.058Z,946.70
2019-01-16T03:41:42.042Z,946.66
2019-01-16T03:42:44.412Z,946.66
2019-01-16T03:43:42.020Z,946.63
2019-01-16T03:44:42.004Z,946.60
2019-01-16T03:45:41.987Z,946.67
2019-01-16T03:46:41.973Z,946.64
2019-01-16T03:47:41.958Z,946.64
2019-01-16T03:48:41.947Z,946.61
2019-01-16T03:49:41.936Z,946.61
2019-01-16T03:50:41.917Z,946.59
2019-01-16T03:51:41.903Z,946.59
2019-01-16T03:52:41.891Z,946.61
2019-01-16T03:53:41.879Z,946.61
2019-01-16T03:54:41.864Z,946.60
2019-01-16T03:55:41.849Z,946.59
2019-01-16T03:56:41.835Z,946.54
2019-01-16T03:57:41.819Z,946.58
2019-01-16T03:58:41.800Z,946.56
2019-01-16T03:59:41.795Z,946.56
2019-01-16T04:00:41.780Z,946.58
2019-01-16T04:01:41.776Z,946.55
2019-01-16T04:02:41.749Z,946.51
2019-01-16T04:03:41.739Z,946.50
2019-01-16T04:04:41.756Z,946.48
2019-01-16T04:05:41.709Z,946.52
2019-01-16T04:06:41.696Z,946.47
2019-01-16T04:07:41.677Z,946.50
2019-01-16T04:08:41.666Z,946.50
2019-01-16T04:09:41.656Z,946.47
2019-01-16T04:10:41.632Z,946.46
2019-01-16T04:11:41.625Z,946.44
2019-01-16T04:12:41.612Z,946.37
2019-01-16T04:13:41.605Z,946.35
2019-01-16T04:14:41.600Z,946.33
2019-01-16T04:15:41.570Z,946.38
2019-01-16T04:16:41.557Z,946.36
2019-01-16T04:17:41.544Z,946.37
2019-01-16T04:18:41.530Z,946.38
2019-01-16T04:19:41.519Z,946.31
2019-01-16T04:20:41.501Z,946.30
2019-01-16T04:21:41.485Z,946.35
2019-01-16T04:22:41.471Z,946.33
2019-01-16T04:23:41.471Z,946.34
2019-01-16T04:24:41.445Z,946.34
2019-01-16T04:25:41.432Z,946.32
2019-01-16T04:26:41.415Z,946.28
2019-01-16T04:27:41.410Z,946.30
2019-01-16T04:28:41.393Z,946.26
2019-01-16T04:29:41.385Z,946.26
2019-01-16T04:30:41.375Z,946.25
2019-01-16T04:31:41.347Z,946.23
2019-01-16T04:32:41.381Z,946.28
2019-01-16T04:33:44.031Z,946.24
2019-01-16T04:34:41.305Z,946.23
2019-01-16T04:35:41.291Z,946.24
2019-01-16T04:36:41.277Z,946.26
2019-01-16T04:37:41.267Z,946.28
2019-01-16T04:38:41.250Z,946.27
2019-01-16T04:39:41.240Z,946.28
2019-01-16T04:40:41.223Z,946.31
2019-01-16T04:41:41.211Z,946.29
2019-01-16T04:42:41.194Z,946.27
2019-01-16T04:43:41.181Z,946.28
2019-01-16T04:44:41.169Z,946.29
2019-01-16T04:45:41.182Z,946.27
2019-01-16T04:46:41.179Z,946.25
2019-01-16T04:47:41.124Z,946.20
2019-01-16T04:48:41.111Z,946.16
2019-01-16T04:49:41.099Z,946.14
2019-01-16T04:50:41.082Z,946.13
2019-01-16T04:51:41.066Z,946.13
2019-01-16T04:52:41.057Z,946.12
2019-01-16T04:53:41.029Z,946.11
2019-01-16T04:54:41.026Z,946.08
2019-01-16T04:55:41.011Z,946.07
2019-01-16T04:56:40.994Z,946.05
2019-01-16T04:57:40.978Z,946.04
2019-01-16T04:58:40.969Z,946.05
2019-01-16T04:59:40.958Z,946.02
2019-01-16T05:00:40.935Z,946.02
2019-01-16T05:01:40.923Z,946.00
2019-01-16T05:02:40.914Z,946.00
2019-01-16T05:03:40.903Z,945.96
2019-01-16T05:04:40.887Z,945.92
2019-01-16T05:05:40.870Z,945.90
2019-01-16T05:06:40.856Z,945.90
2019-01-16T05:07:40.845Z,945.89
2019-01-16T05:08:40.833Z,945.85
2019-01-16T05:09:40.816Z,945.80
2019-01-16T05:10:40.805Z,945.80
2019-01-16T05:11:40.788Z,945.75
2019-01-16T05:12:40.776Z,945.73
2019-01-16T05:13:40.761Z,945.72
2019-01-16T05:14:40.743Z,945.72
2019-01-16T05:15:40.748Z,945.73
2019-01-16T05:16:40.728Z,945.67
2019-01-16T05:17:40.702Z,945.69
2019-01-16T05:18:41.623Z,945.70
2019-01-16T05:19:40.680Z,945.68
2019-01-16T05:20:40.657Z,945.69
2019-01-16T05:21:40.647Z,945.70
2019-01-16T05:22:40.632Z,945.71
2019-01-16T05:23:43.787Z,945.72
2019-01-16T05:24:40.598Z,945.73
2019-01-16T05:25:40.591Z,945.73
2019-01-16T05:26:40.613Z,945.73
2019-01-16T05:27:40.564Z,945.73
2019-01-16T05:28:40.551Z,945.77
2019-01-16T05:29:40.535Z,945.80
2019-01-16T05:30:40.519Z,945.78
2019-01-16T05:31:40.507Z,945.79
2019-01-16T05:32:40.499Z,945.80
2019-01-16T05:33:40.480Z,945.80
2019-01-16T05:34:40.455Z,945.84
2019-01-16T05:35:40.450Z,945.77
2019-01-16T05:36:40.443Z,945.79
2019-01-16T05:37:40.424Z,945.76
2019-01-16T05:38:40.413Z,945.77
2019-01-16T05:39:40.394Z,945.79
2019-01-16T05:40:40.384Z,945.75
2019-01-16T05:41:40.368Z,945.73
2019-01-16T05:42:40.353Z,945.75
2019-01-16T05:43:40.341Z,945.75
2019-01-16T05:44:40.327Z,945.72
2019-01-16T05:45:40.312Z,945.69
2019-01-16T05:46:40.304Z,945.74
2019-01-16T05:47:40.283Z,945.67
2019-01-16T05:48:40.271Z,945.67
2019-01-16T05:49:46.579Z,945.61
2019-01-16T05:50:40.242Z,945.61
2019-01-16T05:51:40.228Z,945.62
2019-01-16T05:52:40.213Z,945.59
2019-01-16T05:53:40.200Z,945.58
2019-01-16T05:54:40.187Z,945.56
2019-01-16T05:55:40.174Z,945.54
2019-01-16T05:56:40.159Z,945.53
2019-01-16T05:57:40.146Z,945.58
2019-01-16T05:58:40.132Z,945.56
2019-01-16T05:59:40.117Z,945.52
2019-01-16T06:00:40.104Z,945.57
2019-01-16T06:01:40.089Z,945.56
2019-01-16T06:02:40.079Z,945.55
2019-01-16T06:03:40.063Z,945.57
2019-01-16T06:04:40.047Z,945.53
2019-01-16T06:05:40.038Z,945.51
2019-01-16T06:06:40.016Z,945.51
2019-01-16T06:07:40.005Z,945.48
2019-01-16T06:08:39.993Z,945.47
2019-01-16T06:09:39.978Z,945.46
2019-01-16T06:10:39.965Z,945.49
2019-01-16T06:11:39.950Z,945.53
2019-01-16T06:12:39.934Z,945.53
2019-01-16T06:13:39.926Z,945.55
2019-01-16T06:14:42.150Z,945.51
2019-01-16T06:15:39.898Z,945.49
2019-01-16T06:16:39.879Z,945.52
2019-01-16T06:17:39.865Z,945.51
2019-01-16T06:18:39.859Z,945.50
2019-01-16T06:19:39.837Z,945.47
2019-01-16T06:20:39.834Z,945.45
2019-01-16T06:21:39.812Z,945.46
2019-01-16T06:22:39.795Z,945.46
2019-01-16T06:23:39.780Z,945.50
2019-01-16T06:24:39.767Z,945.44
2019-01-16T06:25:39.751Z,945.45
2019-01-16T06:26:39.738Z,945.45
2019-01-16T06:27:39.724Z,945.41
2019-01-16T06:28:39.703Z,945.41
2019-01-16T06:29:39.699Z,945.42
2019-01-16T06:30:39.683Z,945.39
2019-01-16T06:31:39.670Z,945.40
2019-01-16T06:32:39.656Z,945.43
2019-01-16T06:33:39.643Z,945.44
2019-01-16T06:34:39.629Z,945.47
2019-01-16T06:35:39.614Z,945.45
2019-01-16T06:36:39.600Z,945.42
2019-01-16T06:37:39.586Z,945.44
2019-01-16T06:38:39.571Z,945.46
2019-01-16T06:39:39.558Z,945.42
2019-01-16T06:40:39.545Z,945.42
2019-01-16T06:41:39.536Z,945.41
2019-01-16T06:42:39.518Z,945.36
2019-01-16T06:43:39.501Z,945.35
2019-01-16T06:44:39.503Z,945.29
2019-01-16T06:45:39.477Z,945.35
2019-01-16T06:46:39.460Z,945.35
2019-01-16T06:47:39.445Z,945.32
2019-01-16T06:48:39.432Z,945.28
2019-01-16T06:49:39.411Z,945.26
2019-01-16T06:50:39.406Z,945.19
2019-01-16T06:51:39.392Z,945.19
2019-01-16T06:52:39.377Z,945.18
2019-01-16T06:53:39.361Z,945.14
2019-01-16T06:54:39.346Z,945.14
2019-01-16T06:55:39.335Z,945.07
2019-01-16T06:56:39.321Z,945.09
2019-01-16T06:57:39.328Z,945.09
2019-01-16T06:58:39.290Z,945.09
2019-01-16T06:59:39.278Z,945.15
2019-01-16T07:00:39.263Z,945.16
2019-01-16T07:01:39.254Z,945.18
2019-01-16T07:02:39.237Z,945.20
2019-01-16T07:03:39.228Z,945.22
2019-01-16T07:04:39.199Z,945.20
2019-01-16T07:05:41.042Z,945.21
2019-01-16T07:06:39.188Z,945.23
2019-01-16T07:07:39.166Z,945.26
2019-01-16T07:08:39.145Z,945.24
2019-01-16T07:09:39.136Z,945.26
2019-01-16T07:10:39.117Z,945.23
2019-01-16T07:11:39.112Z,945.17
2019-01-16T07:12:39.101Z,945.18
2019-01-16T07:13:39.085Z,945.18
2019-01-16T07:14:39.073Z,945.14
2019-01-16T07:15:39.058Z,945.10
2019-01-16T07:16:39.045Z,945.10
2019-01-16T07:17:39.030Z,945.04
2019-01-16T07:18:39.013Z,945.01
2019-01-16T07:19:39.004Z,945.02
2019-01-16T07:20:38.991Z,945.01
2019-01-16T07:21:38.977Z,945.07
2019-01-16T07:22:38.963Z,945.13
2019-01-16T07:23:38.947Z,945.15
2019-01-16T07:24:38.938Z,945.18
2019-01-16T07:25:38.924Z,945.19
2019-01-16T07:26:38.915Z,945.17
2019-01-16T07:27:38.896Z,945.20
2019-01-16T07:28:38.885Z,945.18
2019-01-16T07:29:38.871Z,945.13
2019-01-16T07:30:38.856Z,945.11
2019-01-16T07:31:38.843Z,945.11
2019-01-16T07:32:38.832Z,945.14
2019-01-16T07:33:38.817Z,945.15
2019-01-16T07:34:38.806Z,945.10
2019-01-16T07:35:38.800Z,945.09
2019-01-16T07:36:38.768Z,945.09
2019-01-16T07:37:38.770Z,944.99
2019-01-16T07:38:38.753Z,945.04
2019-01-16T07:39:38.740Z,945.07
2019-01-16T07:40:38.729Z,945.09
2019-01-16T07:41:38.715Z,945.11
2019-01-16T07:42:38.725Z,945.08
2019-01-16T07:43:38.689Z,945.07
2019-01-16T07:44:38.673Z,945.03
2019-01-16T07:45:38.665Z,945.13
2019-01-16T07:46:38.651Z,945.05
2019-01-16T07:47:38.638Z,944.96
2019-01-16T07:48:38.623Z,944.98
2019-01-16T07:49:38.616Z,944.96
2019-01-16T07:50:38.600Z,944.94
2019-01-16T07:51:38.591Z,944.96
2019-01-16T07:52:38.576Z,945.05
2019-01-16T07:53:38.567Z,945.02
2019-01-16T07:54:38.552Z,945.06
2019-01-16T07:55:38.538Z,945.10
2019-01-16T07:56:38.527Z,945.08
2019-01-16T07:57:38.513Z,945.07
2019-01-16T07:58:38.503Z,945.04
2019-01-16T07:59:38.490Z,945.09
2019-01-16T08:00:38.478Z,945.06
2019-01-16T08:01:38.465Z,945.01
2019-01-16T08:02:38.442Z,945.00
2019-01-16T08:03:38.445Z,945.02
2019-01-16T08:04:38.426Z,944.96
2019-01-16T08:05:38.415Z,945.00
2019-01-16T08:06:38.399Z,945.00
2019-01-16T08:07:38.391Z,945.04
2019-01-16T08:08:38.382Z,944.99
2019-01-16T08:09:38.362Z,945.03
2019-01-16T08:10:38.353Z,945.01
2019-01-16T08:11:38.341Z,945.08
2019-01-16T08:12:38.327Z,945.07
2019-01-16T08:13:38.317Z,945.01
2019-01-16T08:14:38.306Z,944.99
2019-01-16T08:15:38.292Z,945.02
2019-01-16T08:16:38.281Z,945.03
2019-01-16T08:17:38.270Z,945.09
2019-01-16T08:18:38.259Z,945.08
2019-01-16T08:19:38.263Z,945.04
2019-01-16T08:20:38.232Z,945.02
2019-01-16T08:21:38.223Z,945.03
2019-01-16T08:22:38.204Z,945.07
2019-01-16T08:23:38.200Z,945.07
2019-01-16T08:24:38.189Z,945.04
2019-01-16T08:25:38.180Z,945.02
2019-01-16T08:26:38.164Z,945.03
2019-01-16T08:27:38.154Z,945.06
2019-01-16T08:28:38.154Z,945.05
2019-01-16T08:29:38.132Z,945.05
2019-01-16T08:30:38.127Z,945.05
2019-01-16T08:31:38.108Z,945.04
2019-01-16T08:32:38.101Z,945.08
2019-01-16T08:33:38.090Z,945.04
2019-01-16T08:34:38.084Z,945.09
2019-01-16T08:35:38.065Z,945.13
2019-01-16T08:36:38.058Z,945.11
2019-01-16T08:37:38.045Z,945.13
2019-01-16T08:38:38.040Z,945.16
2019-01-16T08:39:38.030Z,945.16
2019-01-16T08:40:38.015Z,945.21
2019-01-16T08:41:38.005Z,945.22
2019-01-16T08:42:37.995Z,945.23
2019-01-16T08:43:37.979Z,945.24
2019-01-16T08:44:38.238Z,945.23
2019-01-16T08:45:37.966Z,945.24
2019-01-16T08:46:38.001Z,945.25
2019-01-16T08:47:37.947Z,945.20
2019-01-16T08:48:37.926Z,945.18
2019-01-16T08:49:37.922Z,945.17
2019-01-16T08:50:37.915Z,945.21
2019-01-16T08:51:37.906Z,945.26
2019-01-16T08:52:37.895Z,945.21
2019-01-16T08:53:37.886Z,945.23
2019-01-16T08:54:37.872Z,945.26
2019-01-16T08:55:37.866Z,945.27
2019-01-16T08:56:37.858Z,945.27
2019-01-16T08:57:37.849Z,945.23
2019-01-16T08:58:37.844Z,945.23
2019-01-16T08:59:37.826Z,945.28
2019-01-16T09:00:37.809Z,945.29
2019-01-16T09:01:37.814Z,945.27
2019-01-16T09:02:37.798Z,945.25
2019-01-16T09:03:37.794Z,945.25
2019-01-16T09:04:37.781Z,945.20
2019-01-16T09:05:37.771Z,945.25
2019-01-16T09:06:37.766Z,945.20
2019-01-16T09:07:37.754Z,945.20
2019-01-16T09:08:37.742Z,945.20
2019-01-16T09:09:37.739Z,945.20
2019-01-16T09:10:37.727Z,945.19
2019-01-16T09:11:37.716Z,945.11
2019-01-16T09:12:37.710Z,945.07
2019-01-16T09:13:37.694Z,945.03
2019-01-16T09:14:37.688Z,945.03
2019-01-16T09:15:37.687Z,945.05
2019-01-16T09:16:37.672Z,945.02
2019-01-16T09:17:37.661Z,945.02
2019-01-16T09:18:37.644Z,945.04
2019-01-16T09:19:37.643Z,945.03
2019-01-16T09:20:40.070Z,945.01
2019-01-16T09:21:37.617Z,945.02
2019-01-16T09:22:37.622Z,944.97
2019-01-16T09:23:37.609Z,944.90
2019-01-16T09:24:37.589Z,944.91
2019-01-16T09:25:37.589Z,944.92
2019-01-16T09:26:37.617Z,944.93
2019-01-16T09:27:37.570Z,944.87
2019-01-16T09:28:37.561Z,944.84
2019-01-16T09:29:37.552Z,944.87
2019-01-16T09:30:37.548Z,944.82
2019-01-16T09:31:37.527Z,944.87
2019-01-16T09:32:37.530Z,944.89
2019-01-16T09:33:37.515Z,944.91
2019-01-16T09:34:37.511Z,944.94
2019-01-16T09:35:37.509Z,944.93
2019-01-16T09:36:37.537Z,944.97
2019-01-16T09:37:40.000Z,944.96
2019-01-16T09:38:37.486Z,944.92
2019-01-16T09:39:37.479Z,944.92
2019-01-16T09:40:37.469Z,944.91
2019-01-16T09:41:37.457Z,944.97
2019-01-16T09:42:37.463Z,944.97
2019-01-16T09:43:37.452Z,944.96
2019-01-16T09:44:37.455Z,944.97
2019-01-16T09:45:37.453Z,945.00
2019-01-16T09:46:37.443Z,945.01
2019-01-16T09:47:37.438Z,944.97
2019-01-16T09:48:37.434Z,944.96
2019-01-16T09:49:37.432Z,944.95
2019-01-16T09:50:37.419Z,944.94
2019-01-16T09:51:37.436Z,944.92
2019-01-16T09:52:37.411Z,944.95
2019-01-16T09:53:37.411Z,944.95
2019-01-16T09:54:37.409Z,944.93
2019-01-16T09:55:37.403Z,944.94
2019-01-16T09:56:37.403Z,944.90
2019-01-16T09:57:37.396Z,944.92
2019-01-16T09:58:37.396Z,944.91
2019-01-16T09:59:37.393Z,944.92
2019-01-16T10:00:37.389Z,944.89
2019-01-16T10:01:37.385Z,944.88
2019-01-16T10:02:37.383Z,944.92
2019-01-16T10:03:37.380Z,944.90
2019-01-16T10:04:37.379Z,944.90
2019-01-16T10:05:37.374Z,944.90
2019-01-16T10:06:37.379Z,944.92
2019-01-16T10:07:37.360Z,944.89
2019-01-16T10:08:37.378Z,944.93
2019-01-16T10:09:37.362Z,944.89
2019-01-16T10:10:37.358Z,944.92
2019-01-16T10:11:37.355Z,944.91
2019-01-16T10:12:37.357Z,944.86
2019-01-16T10:13:37.351Z,944.89
2019-01-16T10:14:37.345Z,944.88
2019-01-16T10:15:37.337Z,944.82
2019-01-16T10:16:37.345Z,944.80
2019-01-16T10:17:37.338Z,944.80
2019-01-16T10:18:37.336Z,944.76
2019-01-16T10:19:37.327Z,944.75
2019-01-16T10:20:37.330Z,944.72
2019-01-16T10:21:37.333Z,944.75
2019-01-16T10:22:37.324Z,944.65
2019-01-16T10:23:37.321Z,944.64
2019-01-16T10:24:37.317Z,944.64
2019-01-16T10:25:37.320Z,944.66
2019-01-16T10:26:37.319Z,944.64
2019-01-16T10:27:37.365Z,944.65
2019-01-16T10:28:39.277Z,944.64
2019-01-16T10:29:37.307Z,944.58
2019-01-16T10:30:37.304Z,944.58
2019-01-16T10:31:37.302Z,944.58
2019-01-16T10:32:37.304Z,944.55
2019-01-16T10:33:37.292Z,944.53
2019-01-16T10:34:37.289Z,944.57
2019-01-16T10:35:37.287Z,944.54
2019-01-16T10:36:37.286Z,944.53
2019-01-16T10:37:37.285Z,944.51
2019-01-16T10:38:37.285Z,944.46
2019-01-16T10:39:37.275Z,944.44
2019-01-16T10:40:37.276Z,944.42
2019-01-16T10:41:37.274Z,944.41
2019-01-16T10:42:37.277Z,944.35
2019-01-16T10:43:37.272Z,944.32
2019-01-16T10:44:37.266Z,944.27
2019-01-16T10:45:37.261Z,944.30
2019-01-16T10:46:37.260Z,944.30
2019-01-16T10:47:37.256Z,944.25
2019-01-16T10:48:37.256Z,944.34
2019-01-16T10:49:37.275Z,944.34
2019-01-16T10:50:37.251Z,944.24
2019-01-16T10:51:37.246Z,944.29
2019-01-16T10:52:37.286Z,944.26
2019-01-16T10:53:37.238Z,944.31
2019-01-16T10:54:37.234Z,944.17
2019-01-16T10:55:37.238Z,944.17
2019-01-16T10:56:37.228Z,944.13
2019-01-16T10:57:37.221Z,944.18
2019-01-16T10:58:37.230Z,944.10
2019-01-16T10:59:37.218Z,944.05
2019-01-16T11:00:37.217Z,944.07
2019-01-16T11:01:37.215Z,944.06
2019-01-16T11:02:37.211Z,944.03
2019-01-16T11:03:37.210Z,944.04
2019-01-16T11:04:37.204Z,944.01
2019-01-16T11:05:37.202Z,944.03
2019-01-16T11:06:37.206Z,943.98
2019-01-16T11:07:37.195Z,944.00
2019-01-16T11:08:37.190Z,943.98
2019-01-16T11:09:37.195Z,943.90
2019-01-16T11:10:37.182Z,943.86
2019-01-16T11:11:37.182Z,943.88
2019-01-16T11:12:37.209Z,943.88
2019-01-16T11:13:37.243Z,943.83
2019-01-16T11:14:37.173Z,943.86
2019-01-16T11:15:37.166Z,943.83
2019-01-16T11:16:38.673Z,943.82
2019-01-16T11:17:37.166Z,943.83
2019-01-16T11:18:37.162Z,943.83
2019-01-16T11:19:37.157Z,943.78
2019-01-16T11:20:37.164Z,943.83
2019-01-16T11:21:37.155Z,943.81
2019-01-16T11:22:37.154Z,943.78
2019-01-16T11:23:37.149Z,943.77
2019-01-16T11:24:37.148Z,943.76
2019-01-16T11:25:37.143Z,943.75
2019-01-16T11:26:37.141Z,943.74
2019-01-16T11:27:37.140Z,943.74
2019-01-16T11:28:37.140Z,943.79
2019-01-16T11:29:37.156Z,943.77
2019-01-16T11:30:37.132Z,943.81
2019-01-16T11:31:37.133Z,943.76
2019-01-16T11:32:37.131Z,943.75
2019-01-16T11:33:37.122Z,943.73
2019-01-16T11:34:37.123Z,943.74
2019-01-16T11:35:37.122Z,943.70
2019-01-16T11:36:37.122Z,943.65
2019-01-16T11:37:37.115Z,943.66
2019-01-16T11:38:37.117Z,943.72
2019-01-16T11:39:37.113Z,943.69
2019-01-16T11:40:37.116Z,943.65
2019-01-16T11:41:37.109Z,943.68
2019-01-16T11:42:37.104Z,943.69
2019-01-16T11:43:37.103Z,943.66
2019-01-16T11:44:37.105Z,943.65
2019-01-16T11:45:37.103Z,943.66
2019-01-16T11:46:37.098Z,943.60
2019-01-16T11:47:37.090Z,943.63
2019-01-16T11:48:37.093Z,943.63
2019-01-16T11:49:37.091Z,943.62
2019-01-16T11:50:37.088Z,943.62
2019-01-16T11:51:37.088Z,943.64
2019-01-16T11:52:37.085Z,943.59
2019-01-16T11:53:37.083Z,943.59
2019-01-16T11:54:37.078Z,943.55
2019-01-16T11:55:37.077Z,943.51
2019-01-16T11:56:37.074Z,943.45
2019-01-16T11:57:37.075Z,943.44
2019-01-16T11:58:37.070Z,943.41
2019-01-16T11:59:37.068Z,943.45
2019-01-16T12:00:37.070Z,943.41
2019-01-16T12:01:37.062Z,943.35
2019-01-16T12:02:38.647Z,943.35
2019-01-16T12:03:37.078Z,943.33
2019-01-16T12:04:37.057Z,943.33
2019-01-16T12:05:37.055Z,943.29
2019-01-16T12:06:37.052Z,943.28
2019-01-16T12:07:37.059Z,943.26
2019-01-16T12:08:39.173Z,943.19
2019-01-16T12:09:37.047Z,943.19
2019-01-16T12:10:37.046Z,943.17
2019-01-16T12:11:37.052Z,943.14
2019-01-16T12:12:37.041Z,943.14
2019-01-16T12:13:37.032Z,943.10
2019-01-16T12:14:37.039Z,943.09
2019-01-16T12:15:37.055Z,943.08
2019-01-16T12:16:37.032Z,943.04
2019-01-16T12:17:37.028Z,943.07
2019-01-16T12:18:37.020Z,943.07
2019-01-16T12:19:37.033Z,943.02
2019-01-16T12:20:37.025Z,943.02
2019-01-16T12:21:37.050Z,942.99
2019-01-16T12:22:37.011Z,943.02
2019-01-16T12:23:37.009Z,942.97
2019-01-16T12:24:37.010Z,942.97
2019-01-16T12:25:37.004Z,942.99
2019-01-16T12:26:37.002Z,942.95
2019-01-16T12:27:36.992Z,942.93
2019-01-16T12:28:37.001Z,942.93